Aeroporto :
LOGIN :

Iscrizione | Disclaimer

   EN    FR    IT 

 










Sommario :    VFR   VFR Marginale   IFR   IFR Intensivo   IFR Molto Intensivo
Visibilità : 
Base nubi : 
>= 8 km
>= 3000ft
5 / 8 km
1000 / 3000 ft
1500m / 5 km
500 / 1000 ft
800 / 1500m
200 / 500 ft
< 800m
< 200 ft
Simboli :   Temporali  Nebbia  Neve Forte  Precipitazioni Forti  Vento > 20 kt
SIGMETs :   Varie  Temporali  Ghiacco  Turbolenza  Onda orograficha  Ceneri Vulcaniche







- Altitudine del aeroporto : 286 ft
- Codice IATA : FFD


EGVA - RAF Fairford

ULTIMO METAR :
  • 211656Z AUTO 28018G25KT 9000 M SCT055 15/05 A2991 RMK AO2 PK WND 28028/04 SLP132 T01510047 $

METARs OBSOLETI :
  • 211556Z AUTO 28017G28KT 9999 BKN050 16/04 A2989 RMK AO2 PK WND 27029/36 SLP125 T01580042 $
  • 211546Z AUTO 28023G29KT 9999 BKN050 16/05 A2988 RMK AO2 SLP122 $
  • 211536Z AUTO 27023G29KT 9999 BKN048 16/05 A2987 RMK AO2 SLP118 $
  • 211456Z AUTO 28020G32KT 9999 SCT043 BKN055 17/06 A2986 RMK AO2 PK WND 28032/46 SLP115 60000 T01660055 52022 $
  • 211446Z AUTO 26021G29KT 9999 BKN042 BKN049 17/07 A2985 RMK AO2 SLP111 $

Previsioni scadute.
Nessun NOTAM noto per questo aeroporto.
2 SIGMETs conosciuti per la FIR London (EGTT) :
 
Turbolenza severa
EGTT SIGMET 08 VALID 211600/211900 EGRR
EGTT LONDON FIR SEV TURB FCST WI N4926 W00456 - N4856 W00731 - N4850 W00800 - N5100 W00800 - N5128 W00708 - N4953 W00238 - N4926 W00456 FL200/370 MOV ENE 20KT NC=
Turbolenza severa
EGTT SIGMET 07 VALID 211500/211900 EGRR
EGTT LONDON FIR SEV TURB FCST WI N5419 W00347 - N5310 E00002 - N5155 W00013 - N5222 W00344 - N5419 W00347 SFC/FL060 MOV ESE 35KT WKN=



MetMap, La meteo Aeronautica in un colpo d'occhio ! - Copyright ORBIFLY Dicembre 2007 - Disclaimer

ORBIFLY MET'MAP TEAM :

Programmazione e sviluppo : Alexandra Zaïnal
Concezione e sviluppo : Baudouin d'Aumeries
Co-Programmazione e sviluppo : Marc-Olivier Méhu
Supporto tecnico e logistico : Manuel Goepfert
Aiuto per la traduzione : Arnaldo La Scala

Contatto : metmap@orbifly.com




FONTI E CREDITI :

   NOAA